createdAt,value
2022-11-03T00:03:45.591Z,12.90
2022-11-03T00:08:47.698Z,12.90
2022-11-03T00:13:49.802Z,12.90
2022-11-03T00:18:53.586Z,13.00
2022-11-03T00:23:55.745Z,13.00
2022-11-03T00:28:59.408Z,13.00
2022-11-03T00:34:03.957Z,13.00
2022-11-03T00:39:06.987Z,13.10
2022-11-03T00:44:09.078Z,13.00
2022-11-03T00:49:12.580Z,13.00
2022-11-03T00:54:14.740Z,13.10
2022-11-03T00:59:16.862Z,13.10
2022-11-03T01:04:20.419Z,13.10
2022-11-03T01:09:24.275Z,13.10
2022-11-03T01:14:28.563Z,13.10
2022-11-03T01:19:32.054Z,13.10
2022-11-03T01:24:34.997Z,13.10
2022-11-03T01:29:37.143Z,13.10
2022-11-03T01:34:40.978Z,13.00
2022-11-03T01:39:43.074Z,13.00
2022-11-03T01:44:48.398Z,13.00
2022-11-03T01:49:55.697Z,13.00
2022-11-03T01:54:59.358Z,13.00
2022-11-03T02:00:02.386Z,13.00
2022-11-03T02:05:07.465Z,13.00
2022-11-03T02:10:09.692Z,12.90
2022-11-03T02:15:16.250Z,12.90
2022-11-03T02:20:23.684Z,12.90
2022-11-03T02:25:44.401Z,12.80
2022-11-03T02:30:53.894Z,12.80
2022-11-03T02:36:01.666Z,12.80
2022-11-03T02:41:09.218Z,12.70
2022-11-03T02:46:14.805Z,12.70
2022-11-03T02:51:16.975Z,12.70
2022-11-03T02:56:23.099Z,12.70
2022-11-03T03:01:32.055Z,12.60
2022-11-03T03:06:39.937Z,12.60
2022-11-03T03:11:46.929Z,12.60
2022-11-03T03:16:57.065Z,12.60
2022-11-03T03:22:10.060Z,12.60
2022-11-03T03:27:16.237Z,12.60
2022-11-03T03:32:22.284Z,12.60
2022-11-03T03:37:26.457Z,12.60
2022-11-03T03:42:32.719Z,12.50
2022-11-03T03:47:35.521Z,12.50
2022-11-03T03:52:38.079Z,12.50
2022-11-03T03:57:41.546Z,12.50
2022-11-03T04:02:43.667Z,12.50
2022-11-03T04:07:45.772Z,12.50
2022-11-03T04:12:51.012Z,12.50
2022-11-03T04:17:53.257Z,12.50
2022-11-03T04:22:55.426Z,12.60
2022-11-03T04:27:58.969Z,12.60
2022-11-03T04:33:01.430Z,12.60
2022-11-03T04:38:09.686Z,12.60
2022-11-03T04:43:15.286Z,12.60
2022-11-03T04:48:21.210Z,12.60
2022-11-03T04:53:24.481Z,12.60
2022-11-03T04:58:32.065Z,12.60
2022-11-03T05:03:36.464Z,12.60
2022-11-03T05:08:38.862Z,12.60
2022-11-03T05:13:42.695Z,12.60
2022-11-03T05:18:48.398Z,12.60
2022-11-03T05:23:54.663Z,12.60
2022-11-03T05:29:01.664Z,12.60
2022-11-03T05:34:31.507Z,12.60
2022-11-03T05:39:37.091Z,12.60
2022-11-03T05:44:41.263Z,12.60
2022-11-03T05:49:43.513Z,12.60
2022-11-03T05:54:45.936Z,12.60
2022-11-03T05:59:51.434Z,12.60
2022-11-03T06:04:53.655Z,12.60
2022-11-03T06:09:56.277Z,12.60
2022-11-03T06:14:59.882Z,12.60
2022-11-03T06:20:02.045Z,12.60
2022-11-03T06:25:26.820Z,12.60
2022-11-03T06:30:33.421Z,12.50
2022-11-03T06:35:35.853Z,12.50
2022-11-03T06:40:38.168Z,12.50
2022-11-03T06:45:49.545Z,12.50
2022-11-03T06:50:51.868Z,12.50
2022-11-03T06:55:55.671Z,12.50
2022-11-03T07:01:03.563Z,12.60
2022-11-03T07:06:18.115Z,12.60
2022-11-03T07:11:22.742Z,12.70
2022-11-03T07:16:32.371Z,12.80
2022-11-03T07:21:38.359Z,12.80
2022-11-03T07:26:40.588Z,12.90
2022-11-03T07:31:44.295Z,13.00
2022-11-03T07:36:50.084Z,13.10
2022-11-03T07:41:56.590Z,13.30
2022-11-03T07:47:00.139Z,13.40
2022-11-03T07:52:02.312Z,13.50
2022-11-03T07:57:06.705Z,13.60
2022-11-03T08:02:26.163Z,13.70
2022-11-03T08:07:29.109Z,13.80
2022-11-03T08:12:31.304Z,13.90
2022-11-03T08:17:35.289Z,14.10
2022-11-03T08:22:37.447Z,14.20
2022-11-03T08:27:39.688Z,14.40
2022-11-03T08:32:43.435Z,14.50
2022-11-03T08:37:45.707Z,14.50
2022-11-03T08:42:48.001Z,14.60
2022-11-03T08:47:51.858Z,14.60
2022-11-03T08:52:54.227Z,14.70
2022-11-03T08:57:56.484Z,14.70
2022-11-03T09:03:00.115Z,14.80
2022-11-03T09:13:24.487Z,15.20
2022-11-03T09:18:28.129Z,15.40
2022-11-03T09:23:30.356Z,15.70
2022-11-03T09:28:32.790Z,16.00
2022-11-03T09:33:36.398Z,16.10
2022-11-03T09:38:38.602Z,16.20
2022-11-03T09:43:40.860Z,16.20
2022-11-03T09:48:44.695Z,16.10
2022-11-03T09:53:47.104Z,16.10
2022-11-03T09:58:54.099Z,16.10
2022-11-03T10:04:00.691Z,16.10
2022-11-03T10:09:03.054Z,16.20
2022-11-03T10:14:05.433Z,16.20
2022-11-03T10:19:13.091Z,16.30
2022-11-03T10:24:15.313Z,16.30
2022-11-03T10:34:33.847Z,16.30
2022-11-03T10:39:36.093Z,16.30
2022-11-03T10:44:38.368Z,16.40
2022-11-03T10:49:43.909Z,16.50
2022-11-03T10:54:47.140Z,16.70
2022-11-03T10:59:51.468Z,17.10
2022-11-03T11:04:58.615Z,17.70
2022-11-03T11:10:07.670Z,18.20
2022-11-03T11:15:38.412Z,18.30
2022-11-03T11:20:42.422Z,18.20
2022-11-03T11:26:06.989Z,18.00
2022-11-03T11:31:39.405Z,17.90
2022-11-03T11:36:44.616Z,17.80
2022-11-03T11:42:09.624Z,17.70
2022-11-03T11:47:43.534Z,17.60
2022-11-03T11:52:53.157Z,17.50
2022-11-03T11:57:55.978Z,17.50
2022-11-03T12:02:59.935Z,17.40
2022-11-03T12:08:18.195Z,17.40
2022-11-03T12:13:44.833Z,17.40
2022-11-03T12:18:50.549Z,17.30
2022-11-03T12:23:54.647Z,17.30
2022-11-03T12:28:56.911Z,17.30
2022-11-03T12:33:59.289Z,17.30
2022-11-03T12:39:02.933Z,17.30
2022-11-03T12:44:05.355Z,17.30
2022-11-03T12:49:07.754Z,17.30
2022-11-03T12:54:11.469Z,17.30
2022-11-03T12:59:13.702Z,17.30
2022-11-03T13:04:15.954Z,17.30
2022-11-03T13:09:20.088Z,17.30
2022-11-03T13:14:22.242Z,17.30
2022-11-03T13:19:24.496Z,17.30
2022-11-03T13:24:28.198Z,17.20
2022-11-03T13:29:35.089Z,17.20
2022-11-03T13:34:37.845Z,17.10
2022-11-03T13:39:41.476Z,17.10
2022-11-03T13:44:43.694Z,17.10
2022-11-03T13:50:12.571Z,17.00
2022-11-03T14:00:33.282Z,16.90
2022-11-03T14:05:35.496Z,16.90
2022-11-03T14:10:39.215Z,16.80
2022-11-03T14:15:41.443Z,16.70
2022-11-03T14:20:43.705Z,16.60
2022-11-03T14:25:55.727Z,16.60
2022-11-03T14:31:08.984Z,16.60
2022-11-03T14:36:11.270Z,16.50
2022-11-03T14:41:14.828Z,16.40
2022-11-03T14:46:17.128Z,16.40
2022-11-03T14:51:19.457Z,16.30
2022-11-03T14:56:23.450Z,16.30
2022-11-03T15:01:25.906Z,16.20
2022-11-03T15:06:28.317Z,16.20
2022-11-03T15:11:36.252Z,16.10
2022-11-03T15:16:39.411Z,16.10
2022-11-03T15:21:41.720Z,16.00
2022-11-03T15:26:46.680Z,15.90
2022-11-03T15:31:49.363Z,15.90
2022-11-03T15:36:51.515Z,15.80
2022-11-03T15:41:55.454Z,15.70
2022-11-03T15:46:58.512Z,15.70
2022-11-03T15:52:00.671Z,15.70
2022-11-03T15:57:04.416Z,15.60
2022-11-03T16:02:20.651Z,15.60
2022-11-03T16:07:36.814Z,15.50
2022-11-03T16:12:48.476Z,15.50
2022-11-03T16:17:50.967Z,15.40
2022-11-03T16:22:54.447Z,15.40
2022-11-03T16:27:58.224Z,15.40
2022-11-03T16:33:00.405Z,15.30
2022-11-03T16:38:02.950Z,15.30
2022-11-03T16:43:06.722Z,15.30
2022-11-03T16:48:09.358Z,15.30
2022-11-03T16:53:11.878Z,15.20
2022-11-03T16:58:15.653Z,15.20
2022-11-03T17:03:17.994Z,15.20
2022-11-03T17:08:51.108Z,15.20
2022-11-03T17:13:44.031Z,15.20
2022-11-03T17:18:46.218Z,15.10
2022-11-03T17:23:48.434Z,15.20
2022-11-03T17:28:53.222Z,15.20
2022-11-03T17:33:55.600Z,15.20
2022-11-03T17:38:58.132Z,15.20
2022-11-03T17:44:01.870Z,15.20
2022-11-03T17:49:04.028Z,15.20
2022-11-03T17:54:09.316Z,15.20
2022-11-03T17:59:18.476Z,15.20
2022-11-03T18:04:21.940Z,15.20
2022-11-03T18:09:25.390Z,15.30
2022-11-03T18:14:30.077Z,15.30
2022-11-03T18:19:33.011Z,15.30
2022-11-03T18:24:35.977Z,15.30
2022-11-03T18:29:39.809Z,15.30
2022-11-03T18:34:42.664Z,15.40
2022-11-03T18:39:44.797Z,15.30
2022-11-03T18:44:48.486Z,15.30
2022-11-03T18:49:50.730Z,15.20
2022-11-03T18:54:52.882Z,15.10
2022-11-03T18:59:56.768Z,15.00
2022-11-03T19:04:58.892Z,14.90
2022-11-03T19:10:03.993Z,14.90
2022-11-03T19:15:11.151Z,14.80
2022-11-03T19:20:15.727Z,14.80
2022-11-03T19:25:18.099Z,14.70
2022-11-03T19:30:29.696Z,14.50
2022-11-03T19:35:34.684Z,14.40
2022-11-03T19:40:37.019Z,14.30
2022-11-03T19:45:40.921Z,14.10
2022-11-03T19:50:43.378Z,14.10
2022-11-03T19:55:45.906Z,13.90
2022-11-03T20:00:50.884Z,13.90
2022-11-03T20:05:55.837Z,13.80
2022-11-03T20:10:58.350Z,13.70
2022-11-03T20:16:01.894Z,13.60
2022-11-03T20:21:04.490Z,13.60
2022-11-03T20:26:12.812Z,13.50
2022-11-03T20:31:18.391Z,13.50
2022-11-03T20:36:21.033Z,13.40
2022-11-03T20:41:23.304Z,13.40
2022-11-03T20:46:28.943Z,13.40
2022-11-03T20:51:34.938Z,13.40
2022-11-03T20:56:37.156Z,13.40
2022-11-03T21:01:42.138Z,13.40
2022-11-03T21:06:51.363Z,13.40
2022-11-03T21:11:58.760Z,13.40
2022-11-03T21:17:03.587Z,13.50
2022-11-03T21:22:30.837Z,13.60
2022-11-03T21:27:40.756Z,13.60
2022-11-03T21:32:45.559Z,13.60
2022-11-03T21:37:48.158Z,13.70
2022-11-03T21:42:50.288Z,13.70
2022-11-03T21:47:54.313Z,13.70
2022-11-03T21:52:56.639Z,13.80
2022-11-03T21:57:58.808Z,13.80
2022-11-03T22:03:02.581Z,13.80
2022-11-03T22:08:07.449Z,13.80
2022-11-03T22:13:10.228Z,13.90
2022-11-03T22:18:14.146Z,13.90
2022-11-03T22:23:16.262Z,13.90
2022-11-03T22:28:18.535Z,14.00
2022-11-03T22:33:22.778Z,14.00
2022-11-03T22:38:24.924Z,14.10
2022-11-03T22:43:28.062Z,14.10
2022-11-03T22:48:32.209Z,14.10
2022-11-03T22:53:35.402Z,14.10
2022-11-03T22:58:37.894Z,14.10
2022-11-03T23:03:43.121Z,14.20
2022-11-03T23:08:46.829Z,14.20
2022-11-03T23:13:53.348Z,14.20
2022-11-03T23:18:58.044Z,14.20
2022-11-03T23:24:00.771Z,14.30
2022-11-03T23:29:02.913Z,14.20
2022-11-03T23:34:07.468Z,14.20
2022-11-03T23:39:13.339Z,14.20
2022-11-03T23:44:16.413Z,14.10
2022-11-03T23:49:19.908Z,14.10
2022-11-03T23:54:22.111Z,14.00
2022-11-03T23:59:25.128Z,14.00
